createdAt,value
2023-03-19T00:00:52.990Z,11.30
2023-03-19T00:01:53.067Z,7.90
2023-03-19T00:02:53.280Z,107.90
2023-03-19T00:03:53.112Z,23.90
2023-03-19T00:04:54.176Z,16.70
2023-03-19T00:05:52.987Z,31.50
2023-03-19T00:06:52.966Z,591.00
2023-03-19T00:07:52.956Z,744.30
2023-03-19T00:08:52.928Z,298.70
2023-03-19T00:09:52.904Z,264.00
2023-03-19T00:10:52.923Z,460.40
2023-03-19T00:11:52.963Z,395.50
2023-03-19T00:12:52.944Z,527.50
2023-03-19T00:13:53.676Z,257.80
2023-03-19T00:14:52.890Z,109.50
2023-03-19T00:15:52.919Z,235.90
2023-03-19T00:16:52.959Z,283.30
2023-03-19T00:17:52.894Z,107.80
2023-03-19T00:18:52.853Z,43.90
2023-03-19T00:19:52.861Z,43.20
2023-03-19T00:20:52.973Z,35.10
2023-03-19T00:21:52.835Z,28.60
2023-03-19T00:22:52.839Z,14.70
2023-03-19T00:23:52.840Z,14.90
2023-03-19T00:24:52.817Z,16.30
2023-03-19T00:25:52.781Z,12.40
2023-03-19T00:26:52.825Z,14.80
2023-03-19T00:27:52.852Z,20.20
2023-03-19T00:28:52.859Z,114.90
2023-03-19T00:29:52.776Z,554.40
2023-03-19T00:30:52.813Z,548.20
2023-03-19T00:31:52.796Z,47.60
2023-03-19T00:32:52.810Z,35.10
2023-03-19T00:33:52.730Z,51.70
2023-03-19T00:34:52.757Z,63.40
2023-03-19T00:35:52.733Z,50.70
2023-03-19T00:36:52.765Z,38.50
2023-03-19T00:37:52.752Z,42.10
2023-03-19T00:38:52.742Z,23.10
2023-03-19T00:39:52.671Z,21.90
2023-03-19T00:40:52.704Z,24.10
2023-03-19T00:41:52.718Z,50.70
2023-03-19T00:42:52.667Z,179.70
2023-03-19T00:43:52.673Z,983.40
2023-03-19T00:44:53.694Z,750.00
2023-03-19T00:45:52.714Z,235.00
2023-03-19T00:46:52.675Z,393.50
2023-03-19T00:47:52.643Z,178.60
2023-03-19T00:48:52.598Z,55.90
2023-03-19T00:49:52.612Z,43.50
2023-03-19T00:50:52.621Z,44.10
2023-03-19T00:51:52.607Z,32.00
2023-03-19T00:52:52.644Z,36.50
2023-03-19T00:53:52.583Z,36.50
2023-03-19T00:54:52.581Z,25.10
2023-03-19T00:55:52.644Z,21.30
2023-03-19T00:56:52.551Z,21.10
2023-03-19T00:57:52.549Z,33.50
2023-03-19T00:58:52.575Z,36.30
2023-03-19T00:59:52.519Z,57.30
2023-03-19T01:00:52.509Z,243.30
2023-03-19T01:01:52.490Z,214.90
2023-03-19T01:02:52.765Z,112.30
2023-03-19T01:03:52.501Z,42.20
2023-03-19T01:04:52.538Z,35.90
2023-03-19T01:05:52.487Z,21.40
2023-03-19T01:06:52.492Z,20.20
2023-03-19T01:07:52.450Z,21.20
2023-03-19T01:08:52.500Z,17.80
2023-03-19T01:09:52.494Z,17.00
2023-03-19T01:10:52.554Z,16.40
2023-03-19T01:11:52.457Z,18.70
2023-03-19T01:12:52.428Z,19.10
2023-03-19T01:13:52.420Z,22.10
2023-03-19T01:14:52.418Z,17.00
2023-03-19T01:15:52.435Z,15.70
2023-03-19T01:16:52.399Z,16.10
2023-03-19T01:17:52.386Z,15.50
2023-03-19T01:18:52.364Z,13.90
2023-03-19T01:19:52.375Z,14.30
2023-03-19T01:20:52.379Z,17.00
2023-03-19T01:21:52.374Z,17.00
2023-03-19T01:22:52.356Z,19.80
2023-03-19T01:23:52.390Z,14.10
2023-03-19T01:24:52.868Z,17.20
2023-03-19T01:25:52.304Z,18.30
2023-03-19T01:26:53.350Z,13.60
2023-03-19T01:27:52.307Z,16.40
2023-03-19T01:28:52.295Z,15.90
2023-03-19T01:29:52.280Z,15.60
2023-03-19T01:30:52.300Z,14.70
2023-03-19T01:31:52.315Z,19.60
2023-03-19T01:32:52.369Z,17.70
2023-03-19T01:33:52.236Z,19.00
2023-03-19T01:34:52.250Z,18.80
2023-03-19T01:35:52.245Z,16.50
2023-03-19T01:36:52.258Z,16.60
2023-03-19T01:37:52.370Z,14.90
2023-03-19T01:38:52.265Z,19.70
2023-03-19T01:39:52.220Z,16.30
2023-03-19T01:40:52.239Z,15.40
2023-03-19T01:41:52.203Z,14.90
2023-03-19T01:42:52.192Z,16.80
2023-03-19T01:43:52.202Z,17.90
2023-03-19T01:44:52.186Z,18.30
2023-03-19T01:45:53.056Z,15.90
2023-03-19T01:46:52.210Z,18.20
2023-03-19T01:47:52.146Z,20.00
2023-03-19T01:48:52.227Z,20.40
2023-03-19T01:49:52.166Z,22.30
2023-03-19T01:50:52.139Z,17.60
2023-03-19T01:51:52.189Z,21.30
2023-03-19T01:52:52.121Z,19.80
2023-03-19T01:53:52.179Z,17.50
2023-03-19T01:54:52.170Z,17.50
2023-03-19T01:55:52.074Z,19.30
2023-03-19T01:56:52.082Z,18.70
2023-03-19T01:57:52.074Z,21.80
2023-03-19T01:58:52.207Z,19.20
2023-03-19T01:59:52.063Z,15.90
2023-03-19T02:00:52.069Z,14.00
2023-03-19T02:01:52.154Z,16.30
2023-03-19T02:02:52.051Z,15.60
2023-03-19T02:03:52.065Z,18.10
2023-03-19T02:04:52.060Z,15.30
2023-03-19T02:05:52.016Z,15.30
2023-03-19T02:06:52.020Z,13.50
2023-03-19T02:07:52.011Z,14.80
2023-03-19T02:08:52.001Z,16.40
2023-03-19T02:09:52.022Z,14.00
2023-03-19T02:10:51.985Z,12.70
2023-03-19T02:11:51.989Z,17.60
2023-03-19T02:12:52.034Z,17.10
2023-03-19T02:13:51.959Z,18.80
2023-03-19T02:14:51.926Z,16.60
2023-03-19T02:15:52.000Z,17.00
2023-03-19T02:16:51.951Z,17.60
2023-03-19T02:17:51.922Z,15.90
2023-03-19T02:18:51.890Z,17.60
2023-03-19T02:19:51.925Z,22.00
2023-03-19T02:20:51.890Z,19.70
2023-03-19T02:21:52.011Z,18.90
2023-03-19T02:22:51.958Z,20.00
2023-03-19T02:23:51.857Z,17.30
2023-03-19T02:24:51.879Z,17.10
2023-03-19T02:25:51.836Z,17.50
2023-03-19T02:26:51.842Z,18.40
2023-03-19T02:27:52.022Z,19.40
2023-03-19T02:28:51.819Z,16.10
2023-03-19T02:29:51.928Z,18.40
2023-03-19T02:30:51.882Z,19.00
2023-03-19T02:31:51.837Z,16.80
2023-03-19T02:32:51.977Z,16.40
2023-03-19T02:33:51.793Z,13.90
2023-03-19T02:34:51.808Z,13.90
2023-03-19T02:35:51.887Z,15.00
2023-03-19T02:36:51.801Z,13.60
2023-03-19T02:37:51.781Z,10.90
2023-03-19T02:38:51.789Z,11.50
2023-03-19T02:39:51.729Z,13.50
2023-03-19T02:40:51.741Z,13.60
2023-03-19T02:41:51.735Z,13.30
2023-03-19T02:42:51.722Z,12.70
2023-03-19T02:43:51.725Z,19.70
2023-03-19T02:44:51.702Z,18.60
2023-03-19T02:45:51.688Z,15.90
2023-03-19T02:46:51.760Z,16.40
2023-03-19T02:47:51.715Z,16.80
2023-03-19T02:48:51.680Z,21.60
2023-03-19T02:49:51.677Z,13.70
2023-03-19T02:50:51.677Z,17.80
2023-03-19T02:51:51.663Z,12.00
2023-03-19T02:52:51.661Z,14.20
2023-03-19T02:53:51.689Z,12.90
2023-03-19T02:54:51.624Z,13.80
2023-03-19T02:55:51.610Z,12.70
2023-03-19T02:56:51.655Z,13.20
2023-03-19T02:57:51.592Z,16.20
2023-03-19T02:58:51.672Z,12.50
2023-03-19T02:59:51.590Z,12.50
2023-03-19T03:00:51.645Z,14.80
2023-03-19T03:01:51.690Z,16.40
2023-03-19T03:02:51.547Z,14.90
2023-03-19T03:03:51.558Z,16.00
2023-03-19T03:04:51.555Z,15.10
2023-03-19T03:05:51.593Z,15.70
2023-03-19T03:06:51.570Z,15.40
2023-03-19T03:07:51.518Z,19.20
2023-03-19T03:08:51.531Z,17.50
2023-03-19T03:09:51.518Z,14.10
2023-03-19T03:10:51.513Z,16.20
2023-03-19T03:11:51.499Z,16.90
2023-03-19T03:12:51.553Z,16.50
2023-03-19T03:13:51.484Z,18.60
2023-03-19T03:14:51.477Z,17.60
2023-03-19T03:15:51.513Z,19.30
2023-03-19T03:16:51.460Z,18.90
2023-03-19T03:17:51.468Z,18.20
2023-03-19T03:18:51.454Z,16.70
2023-03-19T03:19:51.441Z,16.30
2023-03-19T03:20:51.445Z,18.10
2023-03-19T03:21:51.452Z,15.30
2023-03-19T03:22:51.416Z,16.70
2023-03-19T03:23:51.388Z,15.50
2023-03-19T03:24:51.399Z,17.40
2023-03-19T03:25:51.397Z,18.30
2023-03-19T03:26:51.414Z,16.90
2023-03-19T03:27:51.367Z,16.70
2023-03-19T03:28:51.369Z,16.80
2023-03-19T03:29:51.359Z,20.00
2023-03-19T03:30:51.379Z,19.30
2023-03-19T03:31:51.407Z,21.50
2023-03-19T03:32:51.368Z,17.80
2023-03-19T03:33:51.332Z,16.20
2023-03-19T03:34:51.342Z,16.90
2023-03-19T03:35:51.306Z,17.90
2023-03-19T03:36:52.341Z,17.60
2023-03-19T03:37:51.314Z,16.60
2023-03-19T03:38:51.317Z,17.80
2023-03-19T03:39:51.272Z,18.40
2023-03-19T03:40:51.291Z,17.60
2023-03-19T03:41:51.291Z,17.80
2023-03-19T03:42:51.285Z,20.10
2023-03-19T03:43:51.256Z,15.30
2023-03-19T03:44:51.299Z,16.60
2023-03-19T03:45:51.298Z,20.70
2023-03-19T03:46:51.241Z,17.50
2023-03-19T04:02:46.828Z,15.70
2023-03-19T04:03:46.746Z,19.10
2023-03-19T04:04:46.706Z,19.30
2023-03-19T04:05:46.737Z,20.00
2023-03-19T04:06:47.844Z,18.90
2023-03-19T04:07:47.874Z,18.70
2023-03-19T04:08:47.847Z,20.10
2023-03-19T04:09:47.822Z,19.30
2023-03-19T04:10:47.835Z,15.40
2023-03-19T04:11:49.785Z,18.70
2023-03-19T04:12:47.828Z,15.80
2023-03-19T04:13:47.789Z,22.50
2023-03-19T04:14:47.787Z,16.90
2023-03-19T04:15:47.780Z,18.30
2023-03-19T04:16:47.817Z,18.10
2023-03-19T04:17:47.772Z,13.90
2023-03-19T04:18:47.766Z,16.10
2023-03-19T04:19:47.795Z,16.10
2023-03-19T04:20:47.736Z,18.90
2023-03-19T04:21:47.747Z,16.10
2023-03-19T04:22:47.712Z,18.60
2023-03-19T04:23:47.716Z,18.20
2023-03-19T04:24:47.701Z,18.10
2023-03-19T04:25:47.714Z,20.80
2023-03-19T04:26:47.691Z,19.90
2023-03-19T04:27:47.786Z,15.40
2023-03-19T04:28:47.657Z,19.00
2023-03-19T04:29:47.654Z,17.70
2023-03-19T04:30:47.696Z,17.70
2023-03-19T04:31:47.632Z,22.80
2023-03-19T04:32:47.765Z,21.10
2023-03-19T04:33:47.652Z,20.50
2023-03-19T04:34:47.616Z,17.80
2023-03-19T04:35:47.660Z,22.60
2023-03-19T04:36:48.618Z,19.80
2023-03-19T04:37:47.625Z,19.70
2023-03-19T04:38:47.581Z,19.00
2023-03-19T04:39:47.577Z,18.80
2023-03-19T04:40:47.566Z,17.30
2023-03-19T04:41:47.652Z,18.90
2023-03-19T04:42:47.570Z,18.80
2023-03-19T04:43:47.551Z,15.90
2023-03-19T04:44:48.610Z,17.10
2023-03-19T04:45:47.586Z,18.80
2023-03-19T04:46:47.587Z,16.10
2023-03-19T04:47:47.530Z,19.30
2023-03-19T04:48:47.527Z,16.40
2023-03-19T04:49:47.519Z,15.10
2023-03-19T04:50:47.538Z,14.70
2023-03-19T04:51:47.539Z,21.70
2023-03-19T04:52:47.489Z,15.90
2023-03-19T04:53:47.544Z,13.90
2023-03-19T04:54:47.510Z,17.00
2023-03-19T04:55:47.456Z,17.00
2023-03-19T04:56:47.439Z,17.30
2023-03-19T04:57:47.470Z,15.00
2023-03-19T04:58:47.450Z,16.20
2023-03-19T04:59:47.476Z,18.10
2023-03-19T05:00:47.438Z,18.30
2023-03-19T05:01:47.486Z,14.40
2023-03-19T05:02:47.412Z,16.30
2023-03-19T05:03:47.467Z,17.20
2023-03-19T05:04:47.428Z,17.10
2023-03-19T05:05:47.409Z,16.00
2023-03-19T05:06:47.383Z,14.70
2023-03-19T05:07:47.379Z,16.50
2023-03-19T05:08:47.381Z,18.90
2023-03-19T05:09:47.359Z,16.80
2023-03-19T05:10:47.415Z,15.30
2023-03-19T05:11:47.365Z,19.10
2023-03-19T05:12:47.314Z,15.30
2023-03-19T05:13:47.310Z,14.30
2023-03-19T05:14:47.331Z,16.90
2023-03-19T05:15:47.364Z,14.80
2023-03-19T05:16:47.305Z,17.00
2023-03-19T05:17:47.284Z,14.60
2023-03-19T05:18:47.295Z,19.00
2023-03-19T05:19:47.269Z,17.50
2023-03-19T05:20:47.282Z,14.40
2023-03-19T05:21:47.259Z,18.30
2023-03-19T05:22:47.933Z,14.60
2023-03-19T05:23:47.283Z,16.00
2023-03-19T05:24:47.266Z,17.70
2023-03-19T05:25:47.230Z,15.70
2023-03-19T05:26:47.237Z,21.10
2023-03-19T05:27:47.262Z,17.90
2023-03-19T05:28:47.212Z,18.90
2023-03-19T05:29:47.189Z,16.80
2023-03-19T05:30:47.285Z,15.90
2023-03-19T05:31:47.171Z,20.20
2023-03-19T05:32:47.256Z,17.70
2023-03-19T05:33:47.151Z,18.70
2023-03-19T05:34:47.148Z,18.40
2023-03-19T05:35:47.199Z,18.90
2023-03-19T05:36:47.158Z,16.80
2023-03-19T05:37:47.158Z,16.70
2023-03-19T05:38:47.119Z,16.30
2023-03-19T05:39:47.096Z,16.30
2023-03-19T05:40:47.088Z,16.20
2023-03-19T05:41:47.097Z,17.60
2023-03-19T05:42:47.149Z,18.30
2023-03-19T05:43:47.082Z,16.70
2023-03-19T05:44:47.066Z,16.10
2023-03-19T05:45:47.071Z,21.80
2023-03-19T05:46:47.127Z,18.00
2023-03-19T05:47:47.092Z,17.20
2023-03-19T05:48:47.097Z,19.20
2023-03-19T05:49:47.040Z,18.20
2023-03-19T05:50:47.042Z,15.40
2023-03-19T05:51:47.044Z,18.40
2023-03-19T05:52:47.032Z,19.10
2023-03-19T05:53:47.032Z,15.00
2023-03-19T05:54:46.987Z,16.00
2023-03-19T05:55:47.012Z,15.40
2023-03-19T05:56:47.000Z,25.00
2023-03-19T05:57:46.982Z,18.20
2023-03-19T05:58:46.977Z,23.70
2023-03-19T05:59:47.962Z,22.50
2023-03-19T06:00:46.989Z,29.40
2023-03-19T06:01:46.989Z,23.20
2023-03-19T06:02:47.040Z,21.50
2023-03-19T06:03:46.973Z,21.80
2023-03-19T06:04:46.910Z,20.90
2023-03-19T06:05:47.015Z,24.10
2023-03-19T06:06:46.920Z,19.50
2023-03-19T06:07:46.927Z,21.60
2023-03-19T06:08:46.880Z,20.80
2023-03-19T06:09:46.878Z,25.10
2023-03-19T06:10:46.893Z,21.20
2023-03-19T06:11:46.856Z,20.40
2023-03-19T06:12:46.894Z,19.60
2023-03-19T06:13:46.847Z,19.20
2023-03-19T06:14:46.836Z,20.00
2023-03-19T06:15:46.852Z,17.30
2023-03-19T06:16:46.825Z,16.10
2023-03-19T06:17:46.906Z,19.80
2023-03-19T06:18:46.860Z,19.80
2023-03-19T06:19:46.809Z,16.60
2023-03-19T06:20:46.833Z,15.60
2023-03-19T06:21:46.819Z,21.30
2023-03-19T06:22:46.906Z,18.70
2023-03-19T06:23:46.865Z,18.00
2023-03-19T06:24:46.776Z,16.40
2023-03-19T06:25:46.802Z,16.70
2023-03-19T06:26:46.757Z,18.10
2023-03-19T06:27:46.763Z,16.20
2023-03-19T06:28:46.733Z,16.20
2023-03-19T06:29:46.733Z,15.00
2023-03-19T06:30:46.754Z,16.00
2023-03-19T06:31:46.798Z,17.20
2023-03-19T06:32:46.764Z,16.70
2023-03-19T06:33:46.713Z,19.70
2023-03-19T06:34:46.745Z,13.80
2023-03-19T06:35:46.707Z,14.60
2023-03-19T06:36:46.693Z,15.50
2023-03-19T06:37:46.666Z,18.10
2023-03-19T06:38:46.666Z,16.60
2023-03-19T06:39:46.719Z,18.10
2023-03-19T06:40:46.755Z,16.00
2023-03-19T06:41:46.664Z,17.80
2023-03-19T06:42:46.655Z,18.20
2023-03-19T06:43:46.636Z,15.90
2023-03-19T06:44:46.702Z,17.30
2023-03-19T06:45:46.680Z,18.10
2023-03-19T06:46:46.603Z,17.80
2023-03-19T06:47:46.605Z,15.60
2023-03-19T06:48:46.621Z,15.20
2023-03-19T06:49:46.573Z,14.20
2023-03-19T06:50:46.597Z,15.90
2023-03-19T06:51:46.585Z,17.90
2023-03-19T06:52:46.621Z,14.40
2023-03-19T06:53:46.607Z,15.60
2023-03-19T06:54:46.573Z,18.80
2023-03-19T06:55:46.579Z,13.90
2023-03-19T06:56:46.549Z,14.80
2023-03-19T06:57:46.507Z,12.50
2023-03-19T06:58:46.578Z,16.60
2023-03-19T06:59:46.521Z,12.40
2023-03-19T07:00:46.640Z,14.20
2023-03-19T07:01:46.498Z,14.10
2023-03-19T07:02:46.478Z,13.70
2023-03-19T07:03:46.514Z,16.90
2023-03-19T07:04:46.443Z,16.90
2023-03-19T07:05:46.453Z,15.50
2023-03-19T07:06:46.488Z,17.80
2023-03-19T07:07:46.474Z,14.90
2023-03-19T07:08:46.515Z,16.70
2023-03-19T07:09:46.420Z,15.20
2023-03-19T07:10:46.442Z,16.90
2023-03-19T07:11:46.406Z,17.60
2023-03-19T07:12:46.463Z,14.10
2023-03-19T07:13:46.411Z,11.70
2023-03-19T07:14:46.409Z,12.60
2023-03-19T07:16:18.971Z,13.50
2023-03-19T07:16:46.487Z,15.80
2023-03-19T07:17:46.468Z,13.70
2023-03-19T07:18:46.377Z,17.10
2023-03-19T07:19:46.367Z,14.60
2023-03-19T07:20:46.359Z,12.80
2023-03-19T07:21:46.335Z,12.50
2023-03-19T07:22:46.369Z,14.30
2023-03-19T07:23:46.345Z,13.30
2023-03-19T07:24:46.314Z,14.10
2023-03-19T07:25:46.303Z,13.20
2023-03-19T07:26:46.300Z,20.00
2023-03-19T07:27:46.296Z,13.50
2023-03-19T07:28:46.293Z,13.40
2023-03-19T07:29:46.260Z,11.90
2023-03-19T07:30:46.277Z,15.10
2023-03-19T07:31:46.370Z,14.00
2023-03-19T07:32:46.313Z,17.70
2023-03-19T07:33:46.247Z,18.20
2023-03-19T07:34:46.254Z,15.10
2023-03-19T07:35:46.231Z,12.60
2023-03-19T07:36:46.251Z,12.70
2023-03-19T07:37:46.210Z,13.90
2023-03-19T07:38:46.223Z,14.40
2023-03-19T07:39:46.212Z,14.60
2023-03-19T07:41:01.046Z,18.50
2023-03-19T07:41:48.209Z,15.20
2023-03-19T07:42:46.174Z,18.30
2023-03-19T07:43:46.209Z,18.50
2023-03-19T07:44:46.204Z,14.80
2023-03-19T07:45:46.188Z,14.50
2023-03-19T07:46:46.140Z,15.70
2023-03-19T07:47:47.386Z,15.10
2023-03-19T07:48:46.118Z,15.10
2023-03-19T07:49:46.115Z,15.20
2023-03-19T07:50:46.134Z,11.80
2023-03-19T07:51:46.134Z,12.50
2023-03-19T07:52:46.105Z,11.30
2023-03-19T07:53:46.129Z,10.40
2023-03-19T07:54:46.109Z,10.60
2023-03-19T07:55:46.107Z,10.50
2023-03-19T07:56:46.170Z,13.10
2023-03-19T07:57:46.055Z,10.30
2023-03-19T07:58:46.101Z,10.50
2023-03-19T07:59:46.075Z,11.50
2023-03-19T08:00:46.038Z,12.80
2023-03-19T08:01:46.048Z,9.40
2023-03-19T08:02:46.068Z,10.10
2023-03-19T08:03:46.022Z,8.00
2023-03-19T08:04:46.013Z,9.80
2023-03-19T08:05:46.000Z,17.90
2023-03-19T08:06:46.053Z,17.80
2023-03-19T08:07:45.999Z,12.50
2023-03-19T08:08:45.981Z,11.60
2023-03-19T08:09:45.958Z,9.50
2023-03-19T08:10:45.989Z,12.00
2023-03-19T08:11:45.980Z,11.10
2023-03-19T08:12:46.914Z,13.80
2023-03-19T08:13:46.004Z,13.50
2023-03-19T08:14:45.936Z,12.50
2023-03-19T08:15:45.927Z,10.10
2023-03-19T08:16:45.949Z,12.10
2023-03-19T08:17:45.971Z,11.40
2023-03-19T08:18:45.902Z,10.70
2023-03-19T08:19:45.881Z,8.20
2023-03-19T08:20:45.892Z,8.10
2023-03-19T08:21:45.869Z,10.60
2023-03-19T08:22:45.892Z,13.60
2023-03-19T08:23:45.881Z,16.20
2023-03-19T08:24:45.823Z,41.80
2023-03-19T08:25:45.824Z,42.80
2023-03-19T08:26:45.814Z,43.70
2023-03-19T08:27:45.808Z,23.00
2023-03-19T08:28:45.841Z,18.10
2023-03-19T08:29:46.494Z,18.60
2023-03-19T08:30:45.801Z,17.60
2023-03-19T08:31:45.775Z,15.10
2023-03-19T08:32:45.855Z,16.60
2023-03-19T08:33:45.822Z,14.70
2023-03-19T08:34:47.629Z,12.90
2023-03-19T08:35:45.813Z,14.30
2023-03-19T08:36:45.760Z,13.80
2023-03-19T08:37:45.730Z,12.00
2023-03-19T08:38:45.739Z,11.00
2023-03-19T08:39:45.746Z,11.20
2023-03-19T08:40:45.727Z,19.50
2023-03-19T08:41:45.726Z,14.20
2023-03-19T08:42:45.678Z,14.70
2023-03-19T08:43:45.689Z,11.90
2023-03-19T08:44:45.714Z,15.40
2023-03-19T08:45:45.686Z,11.00
2023-03-19T08:46:45.704Z,11.20
2023-03-19T08:47:45.648Z,15.60
2023-03-19T08:48:45.691Z,13.60
2023-03-19T08:49:45.642Z,10.60
2023-03-19T08:50:45.629Z,10.20
2023-03-19T08:51:45.615Z,10.40
2023-03-19T08:52:45.602Z,11.40
2023-03-19T08:53:45.613Z,9.50
2023-03-19T08:54:45.632Z,8.30
2023-03-19T08:55:45.677Z,11.50
2023-03-19T08:56:46.538Z,10.20
2023-03-19T08:57:45.638Z,10.40
2023-03-19T08:58:45.583Z,9.30
2023-03-19T08:59:45.620Z,9.70
2023-03-19T09:00:45.580Z,12.60
2023-03-19T09:01:45.588Z,12.20
2023-03-19T09:02:45.572Z,10.30
2023-03-19T09:03:45.546Z,11.80
2023-03-19T09:04:45.590Z,9.10
2023-03-19T09:05:45.548Z,10.20
2023-03-19T09:06:45.510Z,8.50
2023-03-19T09:07:45.505Z,11.20
2023-03-19T09:08:45.513Z,9.40
2023-03-19T09:09:45.485Z,8.60
2023-03-19T09:10:45.496Z,9.10
2023-03-19T09:11:46.526Z,10.60
2023-03-19T09:12:47.431Z,10.30
2023-03-19T09:13:45.475Z,9.20
2023-03-19T09:14:46.022Z,7.90
2023-03-19T09:15:45.433Z,10.60
2023-03-19T09:16:45.460Z,8.60
2023-03-19T09:17:45.455Z,11.50
2023-03-19T09:18:45.419Z,12.80
2023-03-19T09:19:45.412Z,9.30
2023-03-19T09:20:45.409Z,9.30
2023-03-19T09:21:45.390Z,9.20
2023-03-19T09:22:45.394Z,8.80
2023-03-19T09:23:45.409Z,8.90
2023-03-19T09:24:45.460Z,9.60
2023-03-19T09:25:45.351Z,7.30
2023-03-19T09:26:46.366Z,11.80
2023-03-19T09:27:45.381Z,7.20
2023-03-19T09:28:45.318Z,8.60
2023-03-19T09:29:45.306Z,9.50
2023-03-19T09:30:45.328Z,7.30
2023-03-19T09:31:45.341Z,11.20
2023-03-19T09:32:45.319Z,8.30
2023-03-19T09:33:45.356Z,10.50
2023-03-19T09:34:45.280Z,11.40
2023-03-19T09:35:45.322Z,13.00
2023-03-19T09:36:45.321Z,9.60
2023-03-19T09:37:45.266Z,8.90
2023-03-19T09:38:45.322Z,9.20
2023-03-19T09:39:45.278Z,8.90
2023-03-19T09:40:45.257Z,10.10
2023-03-19T09:41:45.231Z,7.50
2023-03-19T09:42:45.240Z,8.40
2023-03-19T09:43:45.268Z,7.70
2023-03-19T09:44:45.318Z,13.30
2023-03-19T09:45:45.239Z,80.90
2023-03-19T09:46:45.289Z,60.30
2023-03-19T09:47:45.196Z,16.10
2023-03-19T09:48:45.289Z,14.80
2023-03-19T09:49:45.210Z,10.40
2023-03-19T09:50:45.190Z,8.10
2023-03-19T09:51:45.183Z,6.60
2023-03-19T09:52:45.274Z,7.40
2023-03-19T09:53:45.157Z,8.50
2023-03-19T09:54:45.176Z,9.20
2023-03-19T09:55:45.187Z,5.90
2023-03-19T09:56:45.167Z,5.50
2023-03-19T09:57:45.171Z,6.00
2023-03-19T09:58:46.098Z,7.60
2023-03-19T09:59:45.160Z,10.30
2023-03-19T10:00:45.138Z,5.00
2023-03-19T10:01:45.137Z,5.90
2023-03-19T10:02:45.105Z,8.70
2023-03-19T10:03:45.089Z,8.90
2023-03-19T10:04:45.105Z,6.30
2023-03-19T10:05:45.067Z,8.00
2023-03-19T10:06:45.069Z,8.10
2023-03-19T10:07:45.024Z,6.20
2023-03-19T10:08:46.047Z,8.30
2023-03-19T10:09:45.027Z,6.50
2023-03-19T10:10:45.071Z,7.20
2023-03-19T10:11:45.018Z,6.50
2023-03-19T10:12:45.039Z,8.10
2023-03-19T10:13:45.014Z,8.40
2023-03-19T10:14:44.978Z,7.90
2023-03-19T10:15:44.975Z,9.90
2023-03-19T10:16:45.014Z,8.50
2023-03-19T10:17:45.021Z,8.40
2023-03-19T10:18:45.318Z,4.90
2023-03-19T10:19:45.187Z,6.80
2023-03-19T10:20:44.966Z,5.70
2023-03-19T10:21:45.012Z,7.00
2023-03-19T10:22:44.981Z,8.40
2023-03-19T10:23:44.956Z,7.70
2023-03-19T10:24:44.908Z,8.70
2023-03-19T10:25:44.915Z,7.50
2023-03-19T10:26:44.975Z,9.80
2023-03-19T10:27:44.923Z,5.30
2023-03-19T10:28:45.067Z,6.40
2023-03-19T10:29:44.972Z,5.90
2023-03-19T10:30:44.869Z,5.80
2023-03-19T10:31:44.978Z,5.50
2023-03-19T10:32:44.946Z,6.70
2023-03-19T10:33:44.842Z,8.90
2023-03-19T10:34:44.843Z,5.10
2023-03-19T10:35:44.976Z,7.10
2023-03-19T10:36:44.833Z,5.40
2023-03-19T10:37:44.820Z,6.50
2023-03-19T10:38:44.854Z,7.10
2023-03-19T10:39:44.816Z,5.70
2023-03-19T10:40:44.831Z,4.50
2023-03-19T10:41:44.898Z,6.60
2023-03-19T10:42:44.775Z,6.30
2023-03-19T10:43:44.766Z,4.50
2023-03-19T10:44:44.790Z,4.20
2023-03-19T10:45:44.890Z,5.10
2023-03-19T10:46:44.755Z,3.20
2023-03-19T10:47:44.791Z,5.10
2023-03-19T10:48:44.803Z,5.70
2023-03-19T10:49:44.724Z,4.00
2023-03-19T10:50:44.731Z,3.30
2023-03-19T10:51:44.726Z,5.60
2023-03-19T10:52:44.755Z,3.90
2023-03-19T10:53:44.729Z,4.10
2023-03-19T10:54:44.705Z,4.60
2023-03-19T10:55:44.641Z,6.50
2023-03-19T10:56:44.677Z,5.00
2023-03-19T10:57:44.655Z,5.00
2023-03-19T10:58:44.715Z,4.60
2023-03-19T10:59:44.692Z,5.20
2023-03-19T11:00:44.744Z,5.00
2023-03-19T11:01:44.617Z,4.20
2023-03-19T11:02:44.677Z,4.80
2023-03-19T11:03:44.649Z,6.20
2023-03-19T11:04:44.602Z,4.30
2023-03-19T11:05:44.673Z,5.10
2023-03-19T11:06:44.622Z,4.00
2023-03-19T11:07:44.621Z,3.50
2023-03-19T11:08:44.584Z,4.60
2023-03-19T11:09:44.640Z,4.20
2023-03-19T11:10:44.579Z,5.40
2023-03-19T11:11:44.562Z,5.70
2023-03-19T11:12:44.521Z,4.60
2023-03-19T11:13:44.657Z,5.60
2023-03-19T11:14:44.514Z,4.10
2023-03-19T11:15:44.568Z,6.90
2023-03-19T11:16:44.569Z,6.00
2023-03-19T11:17:44.540Z,5.30
2023-03-19T11:18:45.449Z,4.80
2023-03-19T11:19:44.508Z,5.20
2023-03-19T11:20:44.478Z,5.20
2023-03-19T11:21:44.474Z,4.70
2023-03-19T11:22:44.458Z,5.60
2023-03-19T11:23:44.496Z,7.60
2023-03-19T11:24:44.446Z,5.70
2023-03-19T11:25:44.511Z,6.80
2023-03-19T11:26:44.476Z,8.20
2023-03-19T11:27:44.493Z,8.00
2023-03-19T11:28:44.414Z,4.90
2023-03-19T11:29:44.481Z,6.10
2023-03-19T11:30:44.418Z,5.70
2023-03-19T11:31:44.487Z,6.50
2023-03-19T11:32:44.505Z,5.40
2023-03-19T11:33:44.417Z,6.60
2023-03-19T11:34:44.355Z,4.80
2023-03-19T11:35:44.473Z,5.10
2023-03-19T11:36:44.364Z,6.80
2023-03-19T11:37:44.377Z,5.40
2023-03-19T11:38:44.356Z,3.30
2023-03-19T11:39:44.338Z,5.70
2023-03-19T11:40:44.347Z,5.10
2023-03-19T11:41:44.352Z,3.40
2023-03-19T11:42:44.354Z,16.50
2023-03-19T11:43:44.335Z,10.70
2023-03-19T11:44:44.312Z,9.10
2023-03-19T11:45:44.350Z,6.30
2023-03-19T11:46:44.299Z,6.70
2023-03-19T11:47:44.349Z,7.90
2023-03-19T11:48:44.394Z,7.50
2023-03-19T11:49:44.270Z,5.90
2023-03-19T11:50:45.087Z,4.80
2023-03-19T11:51:44.252Z,5.00
2023-03-19T11:52:44.264Z,4.90
2023-03-19T11:53:44.278Z,17.20
2023-03-19T11:54:44.275Z,19.10
2023-03-19T11:55:44.272Z,10.30
2023-03-19T11:56:44.210Z,9.90
2023-03-19T11:57:44.204Z,17.10
2023-03-19T11:58:44.224Z,9.10
2023-03-19T11:59:44.200Z,9.80
2023-03-19T12:00:44.187Z,7.50
2023-03-19T12:01:44.160Z,4.70
2023-03-19T12:02:44.274Z,6.40
2023-03-19T12:03:44.277Z,5.70
2023-03-19T12:04:44.170Z,4.70
2023-03-19T12:05:44.183Z,8.20
2023-03-19T12:06:45.146Z,5.00
2023-03-19T12:07:44.120Z,4.40
2023-03-19T12:08:44.130Z,3.40
2023-03-19T12:09:44.165Z,3.50
2023-03-19T12:10:44.169Z,4.70
2023-03-19T12:11:44.101Z,3.60
2023-03-19T12:12:44.192Z,3.40
2023-03-19T12:13:44.104Z,4.00
2023-03-19T12:14:44.098Z,5.00
2023-03-19T12:15:44.107Z,4.00
2023-03-19T12:16:46.532Z,5.20
2023-03-19T12:17:45.078Z,4.80
2023-03-19T12:18:44.043Z,4.70
2023-03-19T12:19:44.036Z,6.80
2023-03-19T12:20:44.035Z,5.20
2023-03-19T12:21:44.056Z,10.00
2023-03-19T12:22:44.214Z,3.00
2023-03-19T12:23:44.010Z,4.90
2023-03-19T12:24:43.980Z,6.10
2023-03-19T12:25:43.977Z,3.20
2023-03-19T12:26:44.009Z,4.10
2023-03-19T12:27:44.005Z,5.20
2023-03-19T12:28:43.973Z,3.00
2023-03-19T12:29:43.953Z,4.90
2023-03-19T12:30:44.060Z,6.20
2023-03-19T12:31:43.970Z,3.00
2023-03-19T12:32:43.965Z,4.50
2023-03-19T12:33:43.997Z,3.90
2023-03-19T12:34:43.958Z,4.00
2023-03-19T12:35:44.044Z,3.00
2023-03-19T12:36:43.926Z,2.00
2023-03-19T12:37:43.935Z,2.90
2023-03-19T12:38:43.900Z,4.10
2023-03-19T12:39:43.878Z,7.60
2023-03-19T12:40:43.878Z,4.50
2023-03-19T12:41:43.851Z,2.40
2023-03-19T12:42:43.870Z,2.00
2023-03-19T12:43:43.892Z,1.60
2023-03-19T12:44:43.882Z,4.20
2023-03-19T12:45:43.866Z,4.30
2023-03-19T12:46:43.934Z,2.70
2023-03-19T12:47:43.841Z,2.30
2023-03-19T12:48:43.901Z,2.60
2023-03-19T12:49:44.399Z,5.60
2023-03-19T12:50:43.798Z,3.40
2023-03-19T12:51:43.818Z,3.10
2023-03-19T12:52:43.884Z,3.50
2023-03-19T12:53:43.811Z,4.40
2023-03-19T12:54:43.797Z,4.80
2023-03-19T12:55:43.779Z,3.90
2023-03-19T12:56:43.749Z,3.60
2023-03-19T12:57:44.670Z,4.40
2023-03-19T12:58:43.768Z,5.10
2023-03-19T12:59:43.766Z,10.30
2023-03-19T13:00:43.736Z,11.00
2023-03-19T13:01:43.757Z,9.40
2023-03-19T13:02:43.746Z,9.90
2023-03-19T13:03:43.737Z,4.60
2023-03-19T13:04:43.707Z,3.50
2023-03-19T13:05:43.702Z,4.90
2023-03-19T13:06:43.767Z,2.70
2023-03-19T13:07:43.680Z,2.70
2023-03-19T13:08:43.665Z,4.00
2023-03-19T13:09:43.664Z,4.50
2023-03-19T13:10:43.662Z,3.80
2023-03-19T13:11:43.621Z,3.80
2023-03-19T13:12:43.622Z,3.20
2023-03-19T13:13:43.613Z,2.60
2023-03-19T13:14:43.644Z,3.00